LLBG/TLV METAR and TAF weather

Enter ICAO airport designator
Station Type Date Time Source
LLBG METAR 2021/09/27 05:50 UTC NOAA

LLBG 270550Z 28011KT 9999 FEW025 BKN035 27/22 Q1011 NOSIG


Station Type Date Time Source
LLBG Decoded METAR 2021/09/27 05:50 UTC NOAA

Ben-Gurion International Airport, Israel (LLBG) 32-00N 034-54E 49M
Sep 27, 2021 - 01:50 AM EDT / 2021.09.27 0550 UTC
Wind: from the W (280 degrees) at 13 MPH (11 KT):0
Visibility: greater than 7 mile(s):0
Sky conditions: mostly cloudy
Temperature: 80 F (27 C)
Dew Point: 71 F (22 C)
Relative Humidity: 74%
Pressure (altimeter): 29.85 in. Hg (1011 hPa)
ob: LLBG 270550Z 28011KT 9999 FEW025 BKN035 27/22 Q1011 NOSIG
cycle: 6

Station Type Date Time Source
LLBG TAF 2021/09/27 06:12 UTC NOAA

TAF TAF LLBG 270506Z 2706/2806 23006KT 9999 SCT030
TEMPO 2706/2707 VRB03KT BKN025
BECMG 2707/2709 28012KT SCT035
BECMG 2715/2717 VRB03KT SCT030 PROB30
TEMPO 2801/2806 16006KT -RA BKN025 TX30/2710Z TN24/2804Z

Example: see airport list